Flight Track Log - Related Links

Times and Time Zones

All times are in EDT time to prevent confusion due to time zone crossing. See the ASH3770 flight status page for this flight to view local times or setup timezone preferences in your user account.


Time Position Orientation Groundspeed Altitude Reporting Facility
EDT Latitude Longitude Course Direction KTS MPH feet Rate Location/Type
Fri 01:25:20 PM 38.9500 -77.5000 237° Southwest 174 200 1,300  Level Potomac TRACON
Fri 01:26:20 PM 38.9167 -77.5667 237° Southwest 223 257 2,900 2,000 Climbing Potomac TRACON
Fri 01:27:20 PM 38.8500 -77.6167 210° Southwest 247 284 5,300 2,386 Climbing Potomac TRACON
Fri 01:27:48 PM 38.8294 -77.6303 207° Southwest 250 288 6,400 2,455 Climbing Washington Center
Fri 01:28:48 PM 38.7661 -77.6736 208° Southwest 255 293 8,900 1,950 Climbing Washington Center
Fri 01:29:48 PM 38.7664 -77.7694 270° West 223 257 10,300 1,400 Climbing Washington Center
Fri 01:30:48 PM 38.7769 -77.8764 277° West 251 289 11,700 2,200 Climbing Washington Center
Fri 01:31:48 PM 38.8019 -77.9836 287° West 302 348 14,700 2,300 Climbing Washington Center
Fri 01:32:48 PM 38.8289 -78.0939 287° West 321 369 16,300 1,850 Climbing Washington Center
Fri 01:33:48 PM 38.8497 -78.1933 285° West 326 375 18,400 2,050 Climbing Washington Center
Fri 01:34:48 PM 38.8511 -78.3186 271° West 320 368 20,400 1,700 Climbing Washington Center
Fri 01:35:48 PM 38.8531 -78.4225 271° West 320 368 21,800 1,500 Climbing Washington Center
Fri 01:36:48 PM 38.8539 -78.5586 270° West 337 388 23,400 1,450 Climbing Washington Center
Fri 01:37:48 PM 38.8528 -78.6811 269° West 345 397 24,700 1,300 Climbing Washington Center
Fri 01:38:48 PM 38.8539 -78.8039 271° West 345 397 26,000 1,100 Climbing Washington Center
Fri 01:39:48 PM 38.8467 -78.9156 265° West 345 397 26,900 1,050 Climbing Washington Center
Fri 01:40:48 PM 38.8467 -79.0594 270° West 358 412 28,100 1,050 Climbing Washington Center
Fri 01:41:48 PM 38.8517 -79.1797 273° West 369 425 29,000 850 Climbing Washington Center
Fri 01:42:48 PM 38.8494 -79.3156 269° West 374 430 29,800 900 Climbing Washington Center
Fri 01:43:48 PM 38.8511 -79.4594 271° West 381 438 30,800 1,050 Climbing Washington Center
Fri 01:44:48 PM 38.8550 -79.5956 272° West 381 438 31,900 1,100 Climbing Washington Center
Fri 01:45:48 PM 38.8569 -79.7264 271° West 381 438 33,000 900 Climbing Washington Center
Fri 01:46:48 PM 38.8589 -79.8464 271° West 381 438 33,700 850 Climbing Washington Center
Fri 01:47:48 PM 38.8606 -79.9772 271° West 376 433 34,700 1,000 Climbing Washington Center
Fri 01:48:48 PM 38.8311 -80.0956 252° West 363 418 35,700 867 Climbing Washington Center
Fri 01:49:18 PM 38.8131 -80.1400 242° Southwest 344 396 36,000 196 Climbing Indianapolis Center
Fri 01:50:20 PM 38.7822 -80.2567 251° West 345 397 36,000  Level Indianapolis Center
Fri 01:51:22 PM 38.7478 -80.3797 250° West 361 415 36,000  Level Indianapolis Center
Fri 01:52:24 PM 38.7067 -80.5256 250° West 362 417 36,000  Level Indianapolis Center
Fri 01:53:26 PM 38.6728 -80.6494 251° West 367 422 36,000  Level Indianapolis Center
Fri 01:54:28 PM 38.6378 -80.7708 250° West 364 419 36,000  Level Indianapolis Center
Fri 01:55:30 PM 38.6047 -80.8922 251° West 362 417 36,000  Level Indianapolis Center
Fri 01:56:32 PM 38.5706 -81.0161 251° West 363 418 36,000  Level Indianapolis Center
Fri 01:57:34 PM 38.5378 -81.1369 251° West 362 417 36,000  Level Indianapolis Center
Fri 01:58:36 PM 38.5042 -81.2592 251° West 362 417 36,000  Level Indianapolis Center
Fri 01:59:38 PM 38.4697 -81.3806 250° West 360 414 36,000  Level Indianapolis Center
Fri 02:00:40 PM 38.4306 -81.5275 251° West 360 414 36,000  Level Indianapolis Center
Fri 02:01:42 PM 38.3969 -81.6486 251° West 359 413 36,000  Level Indianapolis Center
Fri 02:02:44 PM 38.3636 -81.7683 250° West 357 411 36,000  Level Indianapolis Center
Fri 02:03:46 PM 38.3294 -81.8856 250° West 352 405 36,000  Level Indianapolis Center
Fri 02:04:48 PM 38.2961 -82.0053 251° West 357 411 36,000  Level Indianapolis Center
Fri 02:05:50 PM 38.2619 -82.1233 250° West 354 407 36,000  Level Indianapolis Center
Fri 02:06:52 PM 38.2289 -82.2414 250° West 354 407 36,000  Level Indianapolis Center
Fri 02:07:54 PM 38.1942 -82.3594 250° West 356 410 36,000  Level Indianapolis Center
Fri 02:08:56 PM 38.1536 -82.5011 250° West 354 407 36,000  Level Indianapolis Center
Fri 02:09:58 PM 38.1186 -82.6208 250° West 352 405 36,000  Level Indianapolis Center
Fri 02:11:00 PM 38.0853 -82.7389 250° West 354 407 36,000  Level Indianapolis Center
Fri 02:12:02 PM 38.0500 -82.8564 249° West 357 411 36,000  Level Indianapolis Center
Fri 02:13:04 PM 38.0167 -82.9750 250° West 358 412 36,000  Level Indianapolis Center
Fri 02:14:06 PM 37.9819 -83.0919 249° West 356 410 36,000  Level Indianapolis Center
Fri 02:15:08 PM 37.9406 -83.2283 249° West 357 411 36,000  Level Indianapolis Center
Fri 02:16:10 PM 37.9064 -83.3453 250° West 355 409 36,000  Level Indianapolis Center
Fri 02:17:12 PM 37.8717 -83.4614 249° West 353 406 36,000  Level Indianapolis Center
Fri 02:18:15 PM 37.8367 -83.5769 249° West 353 406 36,000  Level Indianapolis Center
Fri 02:19:17 PM 37.8014 -83.6928 249° West 353 406 36,000  Level Indianapolis Center
Fri 02:20:19 PM 37.7608 -83.8272 249° West 351 404 36,000  Level Indianapolis Center
Fri 02:21:21 PM 37.7261 -83.9433 249° West 351 404 36,000  Level Indianapolis Center
Fri 02:22:23 PM 37.6900 -84.0578 248° West 352 405 36,000  Level Indianapolis Center
Fri 02:23:25 PM 37.6547 -84.1736 249° West 352 405 36,000  Level Indianapolis Center
Fri 02:24:27 PM 37.6194 -84.2889 249° West 353 406 36,000  Level Indianapolis Center
Fri 02:25:29 PM 37.5772 -84.4219 248° West 349 402 36,000  Level Indianapolis Center
Fri 02:26:31 PM 37.5428 -84.5375 249° West 351 404 36,000  Level Indianapolis Center
Fri 02:27:33 PM 37.5058 -84.6542 248° West 356 410 36,000  Level Indianapolis Center
Fri 02:28:35 PM 37.4697 -84.7681 248° West 351 404 36,000  Level Indianapolis Center
Fri 02:29:37 PM 37.4328 -84.8842 248° West 356 410 36,000  Level Indianapolis Center
Fri 02:30:39 PM 37.3903 -85.0181 248° West 354 407 36,000  Level Indianapolis Center
Fri 02:31:41 PM 37.3536 -85.1347 248° West 357 411 36,000  Level Indianapolis Center
Fri 02:32:43 PM 37.3167 -85.2514 248° West 358 412 36,000  Level Indianapolis Center
Fri 02:33:45 PM 37.2794 -85.3678 248° West 359 413 36,000  Level Indianapolis Center
Fri 02:34:47 PM 37.2422 -85.4836 248° West 358 412 36,000  Level Indianapolis Center
Fri 02:35:49 PM 37.2044 -85.6017 248° West 363 418 36,000  Level Indianapolis Center
Fri 02:36:20 PM 37.1811 -85.6786 249° West 360 414 36,000  Level Memphis Center
Fri 02:37:20 PM 37.1419 -85.7981 248° West 360 414 36,000  Level Memphis Center
Fri 02:38:21 PM 37.1081 -85.9014 248° West 360 414 36,000  Level Memphis Center
Fri 02:39:20 PM 37.0686 -86.0178 247° West 365 420 36,000  Level Memphis Center
Fri 02:40:20 PM 37.0308 -86.1342 248° West 365 420 36,000  Level Memphis Center
Fri 02:41:20 PM 36.9931 -86.2531 248° West 365 420 36,000  Level Memphis Center
Fri 02:42:20 PM 36.9553 -86.3667 247° West 365 420 36,000  Level Memphis Center
Fri 02:43:20 PM 36.9067 -86.4833 243° Southwest 365 420 36,000  Level Memphis Center
Fri 02:44:20 PM 36.8517 -86.5897 237° Southwest 370 426 36,000  Level Memphis Center
Fri 02:45:20 PM 36.7944 -86.6961 236° Southwest 375 432 36,000  Level Memphis Center
Fri 02:46:20 PM 36.7331 -86.8075 236° Southwest 375 432 36,000  Level Memphis Center
Fri 02:47:20 PM 36.6778 -86.9161 238° Southwest 375 432 36,000  Level Memphis Center
Fri 02:48:20 PM 36.6222 -87.0217 237° Southwest 375 432 36,000  Level Memphis Center
Fri 02:49:20 PM 36.5647 -87.1275 236° Southwest 375 432 36,000  Level Memphis Center
Fri 02:50:21 PM 36.5069 -87.2331 236° Southwest 375 432 36,000  Level Memphis Center
Fri 02:51:21 PM 36.4492 -87.3358 235° Southwest 375 432 36,000  Level Memphis Center
Fri 02:52:20 PM 36.3911 -87.4439 236° Southwest 381 438 36,000  Level Memphis Center
Fri 02:53:20 PM 36.3331 -87.5464 235° Southwest 381 438 36,000  Level Memphis Center
Fri 02:54:20 PM 36.2769 -87.6486 236° Southwest 375 432 36,000  Level Memphis Center
Fri 02:55:21 PM 36.2208 -87.7533 236° Southwest 375 432 36,000  Level Memphis Center
Fri 02:56:20 PM 36.1644 -87.8556 236° Southwest 375 432 36,000  Level Memphis Center
Fri 02:57:20 PM 36.1061 -87.9600 235° Southwest 380 437 36,000  Level Memphis Center
Fri 02:58:20 PM 36.0478 -88.0619 235° Southwest 373 429 36,000  Level Memphis Center
Fri 02:59:21 PM 35.9911 -88.1608 235° Southwest 367 422 36,000  Level Memphis Center
Fri 03:00:21 PM 35.9344 -88.2650 236° Southwest 362 417 36,000  Level Memphis Center
Fri 03:01:20 PM 35.8756 -88.3664 234° Southwest 367 422 36,000  Level Memphis Center
Fri 03:02:20 PM 35.8167 -88.4678 234° Southwest 362 417 36,000  Level Memphis Center
Fri 03:03:21 PM 35.7578 -88.5714 235° Southwest 362 417 36,000  Level Memphis Center
Fri 03:04:21 PM 35.7089 -88.6594 236° Southwest 362 417 36,000  Level Memphis Center
Fri 03:05:21 PM 35.6500 -88.7628 235° Southwest 362 417 36,000  Level Memphis Center
Fri 03:06:20 PM 35.5908 -88.8764 237° Southwest 362 417 36,000  Level Memphis Center
Fri 03:07:20 PM 35.5336 -88.9742 234° Southwest 362 417 36,000  Level Memphis Center
Fri 03:08:21 PM 35.4742 -89.0772 235° Southwest 362 417 36,000  Level Memphis Center
Fri 03:09:21 PM 35.4167 -89.1750 234° Southwest 362 417 36,000  Level Memphis Center
Fri 03:10:20 PM 35.3594 -89.2775 236° Southwest 362 417 36,000  Level Memphis Center
Fri 03:11:20 PM 35.2997 -89.3800 234° Southwest 368 423 36,000  Level Memphis Center
Fri 03:12:20 PM 35.2419 -89.4800 235° Southwest 362 417 36,000  Level Memphis Center
Fri 03:13:20 PM 35.1842 -89.5797 235° Southwest 362 417 36,000  Level Memphis Center
Fri 03:14:21 PM 35.1286 -89.6792 236° Southwest 362 417 36,000  Level Memphis Center
Fri 03:15:20 PM 35.0686 -89.7811 234° Southwest 362 417 36,000  Level Memphis Center
Fri 03:16:20 PM 35.0128 -89.8831 236° Southwest 362 417 36,000  Level Memphis Center
Fri 03:17:21 PM 34.9506 -89.9872 234° Southwest 372 428 36,000  Level Memphis Center
Fri 03:18:20 PM 34.8903 -90.0861 233° Southwest 372 428 36,000  Level Memphis Center
Fri 03:19:20 PM 34.8300 -90.1850 233° Southwest 372 428 36,000  Level Memphis Center
Fri 03:20:20 PM 34.7694 -90.2864 234° Southwest 372 428 36,000  Level Memphis Center
Fri 03:21:20 PM 34.7153 -90.3747 233° Southwest 365 420 36,000  Level Memphis Center
Fri 03:22:20 PM 34.6567 -90.4758 235° Southwest 365 420 36,000  Level Memphis Center
Fri 03:23:20 PM 34.5961 -90.5742 233° Southwest 365 420 36,000  Level Memphis Center
Fri 03:24:21 PM 34.5356 -90.6747 234° Southwest 365 420 36,000  Level Memphis Center
Fri 03:25:20 PM 34.4747 -90.7753 234° Southwest 365 420 36,000  Level Memphis Center
Fri 03:26:21 PM 34.4136 -90.8758 234° Southwest 365 420 36,000  Level Memphis Center
Fri 03:27:20 PM 34.3528 -90.9761 234° Southwest 370 426 36,000  Level Memphis Center
Fri 03:28:20 PM 34.2875 -91.0861 234° Southwest 370 426 36,000  Level Memphis Center
Fri 03:29:20 PM 34.2242 -91.1861 233° Southwest 377 434 36,000  Level Memphis Center
Fri 03:30:20 PM 34.1631 -91.2886 234° Southwest 377 434 36,000  Level Memphis Center
Fri 03:31:20 PM 34.1039 -91.3906 235° Southwest 377 434 36,000  Level Memphis Center
Fri 03:32:21 PM 34.0425 -91.4903 233° Southwest 377 434 36,000  Level Memphis Center
Fri 03:33:20 PM 33.9808 -91.5922 234° Southwest 382 440 36,000  Level Memphis Center
Fri 03:34:20 PM 33.9153 -91.6914 231° Southwest 382 440 36,000  Level Memphis Center
Fri 03:35:21 PM 33.8556 -91.7931 235° Southwest 382 440 36,000  Level Memphis Center
Fri 03:36:21 PM 33.7919 -91.8919 232° Southwest 382 440 36,000  Level Memphis Center
Fri 03:38:43 PM 33.6469 -92.1314 234° Southwest 364 419 36,000  Level Fort Worth Center
Fri 03:39:43 PM 33.5803 -92.2328 232° Southwest 375 432 36,000  Level Fort Worth Center
Fri 03:40:44 PM 33.5197 -92.3333 234° Southwest 375 432 36,000  Level Fort Worth Center
Fri 03:41:43 PM 33.4528 -92.4344 232° Southwest 375 432 36,000  Level Fort Worth Center
Fri 03:42:44 PM 33.4114 -92.5511 247° West 381 438 36,000  Level Fort Worth Center
Fri 03:43:44 PM 33.3719 -92.6678 248° West 381 438 36,000  Level Fort Worth Center
Fri 03:44:44 PM 33.3306 -92.7869 247° West 381 438 36,000  Level Fort Worth Center
Fri 03:45:44 PM 33.2889 -92.9033 247° West 386 444 36,000  Level Fort Worth Center
Fri 03:46:44 PM 33.2472 -93.0222 247° West 386 444 36,000  Level Fort Worth Center
Fri 03:47:43 PM 33.2128 -93.1131 246° West 386 444 36,000  Level Fort Worth Center
Fri 03:48:43 PM 33.1694 -93.2467 249° West 386 444 36,000  Level Fort Worth Center
Fri 03:49:44 PM 33.1250 -93.3631 246° West 386 444 36,000  Level Fort Worth Center
Fri 03:50:43 PM 33.0831 -93.4814 247° West 386 444 36,000  Level Fort Worth Center
Fri 03:51:43 PM 33.0386 -93.5997 246° West 386 444 36,000  Level Fort Worth Center
Fri 03:52:44 PM 32.9961 -93.7181 247° West 386 444 36,000  Level Fort Worth Center
Fri 03:53:44 PM 32.9539 -93.8411 248° West 386 444 36,000  Level Fort Worth Center
Fri 03:54:43 PM 32.9111 -93.9592 247° West 386 444 36,000  Level Fort Worth Center
Fri 03:55:44 PM 32.8664 -94.0794 246° West 391 450 36,000  Level Fort Worth Center
Fri 03:56:43 PM 32.8258 -94.1972 248° West 396 456 36,000  Level Fort Worth Center
Fri 03:57:44 PM 32.7808 -94.3175 246° West 396 456 36,000  Level Fort Worth Center
Fri 03:58:44 PM 32.7356 -94.4350 245° Southwest 396 456 36,000  Level Fort Worth Center
Fri 03:59:44 PM 32.6944 -94.5547 248° West 397 457 36,000  Level Fort Worth Center
Fri 04:00:43 PM 32.6511 -94.6747 247° West 397 457 36,000  Level Fort Worth Center
Fri 04:01:44 PM 32.6036 -94.7969 245° Southwest 397 457 36,000  Level Fort Worth Center
Fri 04:02:43 PM 32.5603 -94.9142 246° West 403 464 36,000  Level Fort Worth Center
Fri 04:03:43 PM 32.5125 -95.0336 245° Southwest 403 464 36,000  Level Fort Worth Center
Fri 04:04:44 PM 32.4628 -95.1678 246° West 403 464 36,000  Level Fort Worth Center
Fri 04:05:44 PM 32.4292 -95.2769 250° West 398 458 36,000  Level Fort Worth Center
Fri 04:06:43 PM 32.3831 -95.3961 245° Southwest 398 458 36,000  Level Fort Worth Center
Fri 04:07:44 PM 32.3369 -95.5275 247° West 393 452 36,000  Level Fort Worth Center
Fri 04:08:44 PM 32.2886 -95.6464 244° Southwest 403 464 36,000  Level Fort Worth Center
Fri 04:09:43 PM 32.2422 -95.7678 246° West 403 464 36,000  Level Fort Worth Center
Fri 04:10:44 PM 32.1978 -95.8889 247° West 403 464 36,000  Level Fort Worth Center
Fri 04:11:43 PM 32.1533 -96.0072 246° West 403 464 36,000  Level Fort Worth Center
Fri 04:12:43 PM 32.1044 -96.1308 245° Southwest 403 464 36,000  Level Fort Worth Center
Fri 04:13:44 PM 32.0619 -96.2464 247° West 398 458 36,000  Level Fort Worth Center
Fri 04:14:44 PM 32.0128 -96.3722 245° Southwest 403 464 36,000  Level Fort Worth Center
Fri 04:15:44 PM 31.9719 -96.4753 245° Southwest 403 464 36,000  Level Fort Worth Center
Fri 04:16:44 PM 31.9206 -96.6081 246° West 394 453 36,000 -900 Level Fort Worth Center
Fri 04:17:44 PM 31.8417 -96.7017 225° Southwest 389 448 34,200 -1,750 Descending Fort Worth Center
Fri 04:18:44 PM 31.7628 -96.7658 215° Southwest 382 440 32,500 -1,850 Descending Fort Worth Center
Fri 04:19:44 PM 31.6692 -96.8397 214° Southwest 395 455 30,500 -2,018 Descending Fort Worth Center
Fri 04:20:34 PM 31.5981 -96.8972 215° Southwest 390 449 28,800 -1,982 Descending Houston Center
Fri 04:21:36 PM 31.5086 -96.9681 214° Southwest 385 443 26,800 -2,129 Descending Houston Center
Fri 04:22:38 PM 31.4053 -97.0506 214° Southwest 381 438 24,400 -2,129 Descending Houston Center
Fri 04:23:40 PM 31.3183 -97.1211 215° Southwest 379 436 22,400 -1,920 Descending Houston Center
Fri 04:24:43 PM 31.2333 -97.1892 214° Southwest 369 425 20,400 -1,968 Descending Houston Center
Fri 04:25:45 PM 31.1381 -97.2361 203° Southwest 372 428 18,300 -1,984 Descending Houston Center
Fri 04:26:47 PM 31.0414 -97.2742 199° South 365 420 16,300 -2,032 Descending Houston Center
Fri 04:27:49 PM 30.9336 -97.3164 199° South 361 415 14,100 -1,597 Descending Houston Center
Fri 04:28:51 PM 30.8378 -97.3531 198° South 364 419 13,000 -532 Descending Houston Center
Fri 04:29:53 PM 30.7400 -97.3914 199° South 367 422 13,000 -387 Level Houston Center
Fri 04:30:55 PM 30.6536 -97.4256 199° South 326 375 12,200 -1,161 Descending Houston Center
Fri 04:31:57 PM 30.5947 -97.4847 221° Southwest 285 328 10,600 -1,694 Descending Houston Center
Fri 04:32:59 PM 30.5294 -97.5525 222° Southwest 270 311 8,700 -1,790 Descending Houston Center
Fri 04:34:01 PM 30.4789 -97.6083 224° Southwest 255 293 6,900 -1,680 Descending Houston Center
Fri 04:35:04 PM 30.4344 -97.6569 223° Southwest 226 260 5,200 -1,559 Descending Houston Center
Fri 04:36:08 PM 30.3811 -97.6844 204° Southwest 209 241 3,600 -1,113 Descending Houston Center
Fri 04:37:08 PM 30.3275 -97.6817 177° South 194 223 2,900 -836 Descending Houston Center
Fri 04:38:10 PM 30.2811 -97.6814 180° South 179 206 1,900 -968 Descending Houston Center

Login

Don't have an account? Register now (free) for customized features, flight alerts, and more!